ORY weather

Paris-Orly Airport
Paris, Île-de-France, France

Public forecast

Using degrees Celsius for public forecast. Weather courtesy of forecast.io.

METAR (pilot weather report)

Retrieved 2019/05/24 15:30 UTC (5 minutes ago):

LFPO 241530Z 33010KT 300V360 9999 FEW053TCU SCT076 BKN100 21/10 Q1016 NOSIG

TAF (pilot weather forecast)

Retrieved 2019/05/24 12:21 UTC (3 hours ago):

TAF LFPO 241100Z 2412/2518 32005KT CAVOK TEMPO 2415/2421 6000 -SHRA SCT050CB SCT060 PROB30 TEMPO 2415/2419 3000 -TSRA SCT045CB BKN050 BECMG 2509/2512 SCT040 TEMPO 2512/2517 3000 SHRA SCT050CB SCT060